Time;durP1;ratioP1;P1;durP2;ratioP2;P2;SDS_P1;SDS_P2;PMS_P1;PMS_P2;Temp;Humidity;BMP_temperature;BMP_pressure;BME280_temperature;BME280_humidity;BME280_pressure;Samples;Min_cycle;Max_cycle;Signal;HPM_P1;HPM_P2
2021/06/04 00:02:03;;;;;;;5.85;1.60;;;;;;;;;;5097511;28;20023;-68
2021/06/04 00:04:28;;;;;;;8.35;1.95;;;;;;;;;;5104802;28;20024;-68
2021/06/04 00:06:54;;;;;;;9.45;2.00;;;;;;;;;;5104069;28;20096;-69
2021/06/04 00:09:19;;;;;;;7.20;1.58;;;;;;;;;;5112489;28;20050;-69
2021/06/04 00:11:46;;;;;;;6.88;1.70;;;;;;;;;;5095438;28;20032;-70
2021/06/04 00:14:24;;;;;;;7.93;1.60;;;;;;;;;;5107859;28;20042;-68
2021/06/04 00:16:53;;;;;;;6.03;1.45;;;;;;;;;;5103446;28;20080;-69
2021/06/04 00:19:20;;;;;;;9.23;1.67;;;;;;;;;;5097914;28;20039;-69
2021/06/04 00:21:57;;;;;;;3.28;1.83;;;;;;;;;;5109744;28;20084;-69
2021/06/04 00:24:23;;;;;;;7.82;1.77;;;;;;;;;;5099584;28;20023;-69
2021/06/04 00:26:48;;;;;;;3.70;1.40;;;;;;;;;;5111655;28;20600;-68
2021/06/04 00:29:14;;;;;;;10.52;1.85;;;;;;;;;;5112810;28;20024;-69
2021/06/04 00:31:39;;;;;;;7.20;2.00;;;;;;;;;;5095590;28;20084;-68
2021/06/04 00:34:06;;;;;;;7.80;1.77;;;;;;;;;;5108823;28;20023;-68
2021/06/04 00:36:32;;;;;;;2.90;1.30;;;;;;;;;;5100537;28;20016;-69
2021/06/04 00:38:57;;;;;;;6.95;1.88;;;;;;;;;;5100466;28;20396;-68
2021/06/04 00:41:30;;;;;;;6.57;1.70;;;;;;;;;;5108216;28;20384;-69
2021/06/04 00:43:55;;;;;;;3.85;1.38;;;;;;;;;;5095584;28;20023;-69
2021/06/04 00:46:21;;;;;;;5.78;1.80;;;;;;;;;;5104924;28;20044;-68
2021/06/04 00:48:46;;;;;;;7.60;2.28;;;;;;;;;;5101393;28;20036;-68
2021/06/04 00:51:16;;;;;;;6.88;1.70;;;;;;;;;;5097376;28;20440;-68
2021/06/04 00:53:42;;;;;;;10.60;2.10;;;;;;;;;;5108049;28;20032;-69
2021/06/04 00:56:08;;;;;;;6.60;2.47;;;;;;;;;;5097868;28;20380;-69
2021/06/04 00:58:37;;;;;;;11.75;1.95;;;;;;;;;;5104953;28;20019;-69
2021/06/04 01:01:03;;;;;;;12.73;2.28;;;;;;;;;;5104870;28;20687;-68
2021/06/04 01:03:29;;;;;;;7.78;1.65;;;;;;;;;;5109352;28;20166;-68
2021/06/04 01:06:08;;;;;;;9.20;2.10;;;;;;;;;;5111294;28;20042;-69
2021/06/04 01:08:39;;;;;;;6.93;1.88;;;;;;;;;;5112061;28;20020;-68
2021/06/04 01:11:07;;;;;;;10.32;2.78;;;;;;;;;;5111702;28;20047;-69
2021/06/04 01:13:39;;;;;;;12.63;2.88;;;;;;;;;;5112204;28;20024;-68
2021/06/04 01:16:19;;;;;;;7.30;2.33;;;;;;;;;;5092230;28;20498;-69
2021/06/04 01:18:50;;;;;;;5.43;2.17;;;;;;;;;;5100894;28;20111;-68
2021/06/04 01:21:26;;;;;;;9.15;2.28;;;;;;;;;;5113418;28;20027;-68
2021/06/04 01:23:57;;;;;;;9.07;2.53;;;;;;;;;;5116379;28;20031;-68
2021/06/04 01:26:43;;;;;;;7.47;2.17;;;;;;;;;;5106373;28;20023;-69
2021/06/04 01:29:10;;;;;;;5.70;2.65;;;;;;;;;;5097913;28;20090;-68
2021/06/04 01:31:41;;;;;;;7.50;2.42;;;;;;;;;;5115838;28;20024;-69
2021/06/04 01:34:11;;;;;;;4.68;2.67;;;;;;;;;;5115128;28;20110;-69
2021/06/04 01:36:38;;;;;;;7.32;3.45;;;;;;;;;;5115861;28;20070;-69
2021/06/04 01:39:15;;;;;;;10.20;2.15;;;;;;;;;;5115930;28;20071;-68
2021/06/04 01:41:41;;;;;;;8.55;2.05;;;;;;;;;;5115117;28;20030;-68
2021/06/04 01:44:12;;;;;;;11.85;2.20;;;;;;;;;;5115965;28;20032;-68
2021/06/04 01:46:40;;;;;;;10.90;2.40;;;;;;;;;;5115202;28;20031;-68
2021/06/04 01:49:08;;;;;;;7.00;2.40;;;;;;;;;;5115764;28;20099;-69
2021/06/04 01:51:39;;;;;;;9.85;2.60;;;;;;;;;;5115619;28;20023;-69
2021/06/04 01:54:10;;;;;;;11.05;2.60;;;;;;;;;;5115327;28;20038;-68
2021/06/04 01:56:39;;;;;;;7.47;2.50;;;;;;;;;;5114165;28;20036;-68
2021/06/04 01:59:14;;;;;;;12.40;2.55;;;;;;;;;;5113744;28;20176;-69
2021/06/04 02:01:42;;;;;;;8.48;2.30;;;;;;;;;;5113438;28;20093;-68
2021/06/04 02:04:09;;;;;;;7.82;2.83;;;;;;;;;;5113861;28;20032;-68
2021/06/04 02:06:34;;;;;;;7.80;2.47;;;;;;;;;;5113101;28;20503;-68
2021/06/04 02:09:01;;;;;;;8.77;2.70;;;;;;;;;;5114323;28;20042;-68
2021/06/04 02:11:30;;;;;;;10.93;2.72;;;;;;;;;;5093728;28;20044;-69
2021/06/04 02:13:56;;;;;;;8.73;2.50;;;;;;;;;;5100865;28;20028;-67
2021/06/04 02:16:40;;;;;;;9.98;2.40;;;;;;;;;;5115030;28;20047;-68
2021/06/04 02:19:15;;;;;;;6.32;2.22;;;;;;;;;;5115016;28;20027;-69
2021/06/04 02:21:46;;;;;;;8.20;2.05;;;;;;;;;;5114710;28;20528;-68
2021/06/04 02:24:23;;;;;;;6.30;2.33;;;;;;;;;;5115200;28;20067;-68
2021/06/04 02:26:51;;;;;;;7.70;2.65;;;;;;;;;;5113985;28;20380;-67
2021/06/04 02:29:30;;;;;;;7.63;2.15;;;;;;;;;;5115366;28;20024;-68
2021/06/04 02:32:05;;;;;;;8.90;2.00;;;;;;;;;;5114455;28;20026;-68
2021/06/04 02:34:38;;;;;;;6.82;2.22;;;;;;;;;;5113991;28;20030;-68
2021/06/04 02:37:03;;;;;;;9.05;2.30;;;;;;;;;;5106979;28;20118;-68
2021/06/04 02:39:34;;;;;;;9.40;2.05;;;;;;;;;;5114841;28;20143;-69
2021/06/04 02:42:01;;;;;;;6.95;2.33;;;;;;;;;;5114147;28;20015;-69
2021/06/04 02:44:29;;;;;;;5.57;1.98;;;;;;;;;;5114937;28;20106;-68
2021/06/04 02:47:00;;;;;;;8.65;2.60;;;;;;;;;;5114363;28;20031;-67
2021/06/04 02:49:27;;;;;;;7.38;2.83;;;;;;;;;;5114578;28;20376;-69
2021/06/04 02:51:52;;;;;;;8.30;2.00;;;;;;;;;;5113926;28;20028;-68
2021/06/04 02:54:19;;;;;;;3.80;1.85;;;;;;;;;;5114356;28;20031;-68
2021/06/04 02:56:46;;;;;;;7.07;2.33;;;;;;;;;;5114296;28;20043;-69
2021/06/04 02:59:21;;;;;;;6.78;2.75;;;;;;;;;;5113824;28;20072;-69
2021/06/04 03:01:51;;;;;;;7.32;2.58;;;;;;;;;;5114053;28;20028;-68
2021/06/04 03:04:17;;;;;;;12.90;2.95;;;;;;;;;;5114933;28;20019;-68
2021/06/04 03:06:44;;;;;;;8.30;2.83;;;;;;;;;;5113769;28;20032;-69
2021/06/04 03:09:13;;;;;;;6.35;2.83;;;;;;;;;;5114611;28;20031;-69
2021/06/04 03:11:39;;;;;;;5.43;2.70;;;;;;;;;;5113269;28;20030;-68
2021/06/04 03:14:05;;;;;;;6.63;2.65;;;;;;;;;;5112875;28;20437;-68
2021/06/04 03:16:30;;;;;;;6.88;3.13;;;;;;;;;;5111803;28;20111;-68
2021/06/04 03:18:58;;;;;;;12.38;3.13;;;;;;;;;;5112722;28;20421;-67
2021/06/04 03:21:32;;;;;;;11.07;3.97;;;;;;;;;;5112840;28;20039;-68
2021/06/04 03:23:58;;;;;;;14.15;3.78;;;;;;;;;;5112684;28;20076;-68
2021/06/04 03:26:25;;;;;;;10.25;3.90;;;;;;;;;;5112321;28;20035;-68
2021/06/04 03:28:52;;;;;;;14.05;3.55;;;;;;;;;;5096549;28;20028;-68
2021/06/04 03:31:19;;;;;;;9.40;3.83;;;;;;;;;;5093658;28;20028;-69
2021/06/04 03:33:45;;;;;;;11.60;4.10;;;;;;;;;;5112803;28;20380;-68
2021/06/04 03:36:15;;;;;;;15.27;4.38;;;;;;;;;;5111961;28;20047;-69
2021/06/04 03:38:41;;;;;;;12.00;5.03;;;;;;;;;;5112254;28;20111;-68
2021/06/04 03:41:06;;;;;;;15.30;4.57;;;;;;;;;;5112425;28;20111;-69
2021/06/04 03:43:32;;;;;;;9.35;4.18;;;;;;;;;;5110981;28;20030;-68
2021/06/04 03:45:57;;;;;;;9.70;4.18;;;;;;;;;;5112475;28;20031;-68
2021/06/04 03:48:24;;;;;;;13.27;4.10;;;;;;;;;;5113932;28;20099;-68
2021/06/04 03:50:52;;;;;;;10.40;4.45;;;;;;;;;;5113014;28;20024;-68
2021/06/04 03:53:17;;;;;;;11.60;4.45;;;;;;;;;;5113153;28;20073;-69
2021/06/04 03:55:43;;;;;;;10.40;4.82;;;;;;;;;;5113448;28;20036;-68
2021/06/04 03:58:09;;;;;;;17.80;4.78;;;;;;;;;;5112649;28;20032;-69
2021/06/04 04:00:40;;;;;;;12.13;4.03;;;;;;;;;;5112623;28;20035;-68
2021/06/04 04:03:05;;;;;;;8.38;3.97;;;;;;;;;;5113068;28;20031;-68
2021/06/04 04:05:31;;;;;;;14.00;4.68;;;;;;;;;;5113080;28;20030;-69
2021/06/04 04:07:57;;;;;;;16.50;5.93;;;;;;;;;;5113216;28;20104;-67
2021/06/04 04:10:23;;;;;;;17.67;4.47;;;;;;;;;;5112607;28;20395;-68
2021/06/04 04:12:49;;;;;;;12.70;4.68;;;;;;;;;;5112979;28;20368;-68
2021/06/04 04:15:18;;;;;;;14.13;4.82;;;;;;;;;;5112533;28;20465;-68
2021/06/04 04:17:44;;;;;;;13.70;4.35;;;;;;;;;;5113218;28;20035;-68
2021/06/04 04:20:10;;;;;;;11.30;4.40;;;;;;;;;;5112350;28;20472;-69
2021/06/04 04:22:37;;;;;;;12.35;4.55;;;;;;;;;;5113059;28;20053;-68
2021/06/04 04:25:03;;;;;;;16.02;4.63;;;;;;;;;;5112619;28;20023;-68
2021/06/04 04:27:29;;;;;;;9.68;4.50;;;;;;;;;;5112567;28;20035;-68
2021/06/04 04:29:54;;;;;;;12.35;4.50;;;;;;;;;;5113326;28;20490;-68
2021/06/04 04:32:19;;;;;;;8.50;3.97;;;;;;;;;;5112108;28;20027;-68
2021/06/04 04:34:45;;;;;;;13.30;4.85;;;;;;;;;;5112455;28;20026;-68
2021/06/04 04:37:11;;;;;;;16.63;4.57;;;;;;;;;;5112479;28;20110;-68
2021/06/04 04:39:38;;;;;;;10.93;4.28;;;;;;;;;;5112660;28;20035;-68
2021/06/04 04:42:05;;;;;;;10.63;4.78;;;;;;;;;;5112578;28;20020;-69
2021/06/04 04:44:32;;;;;;;9.57;4.47;;;;;;;;;;5112957;28;20024;-69
2021/06/04 04:46:57;;;;;;;12.60;4.80;;;;;;;;;;5112760;28;20421;-69
2021/06/04 04:49:23;;;;;;;14.35;4.85;;;;;;;;;;5113028;28;20103;-68
2021/06/04 04:51:48;;;;;;;13.30;4.38;;;;;;;;;;5113127;28;20360;-68
2021/06/04 04:54:14;;;;;;;10.70;4.50;;;;;;;;;;5112280;28;20032;-69
2021/06/04 04:56:40;;;;;;;18.40;4.95;;;;;;;;;;5114262;28;20073;-68
2021/06/04 04:59:06;;;;;;;10.27;4.63;;;;;;;;;;5116261;28;20102;-68
2021/06/04 05:01:31;;;;;;;13.90;4.95;;;;;;;;;;5116322;28;20032;-68
2021/06/04 05:03:56;;;;;;;11.93;4.85;;;;;;;;;;5116736;28;20425;-68
2021/06/04 05:06:22;;;;;;;15.23;4.65;;;;;;;;;;5116568;28;20055;-69
2021/06/04 05:08:47;;;;;;;19.55;6.63;;;;;;;;;;5116877;28;20027;-68
2021/06/04 05:11:13;;;;;;;11.80;5.07;;;;;;;;;;5116894;28;20043;-68
2021/06/04 05:13:38;;;;;;;14.18;4.13;;;;;;;;;;5116492;28;20059;-69
2021/06/04 05:16:04;;;;;;;8.85;4.03;;;;;;;;;;5116034;28;20070;-69
2021/06/04 05:18:34;;;;;;;10.05;3.30;;;;;;;;;;5115964;28;20076;-69
2021/06/04 05:20:59;;;;;;;7.43;2.60;;;;;;;;;;5116358;28;20433;-69
2021/06/04 05:23:25;;;;;;;6.00;2.05;;;;;;;;;;5115781;28;20071;-70
2021/06/04 05:25:51;;;;;;;5.28;1.58;;;;;;;;;;5116635;28;20471;-69
2021/06/04 05:28:19;;;;;;;6.03;1.90;;;;;;;;;;5115306;28;20043;-70
2021/06/04 05:30:45;;;;;;;5.13;1.50;;;;;;;;;;5115670;28;20120;-69
2021/06/04 05:33:12;;;;;;;4.53;1.45;;;;;;;;;;5116128;28;20094;-69
2021/06/04 05:35:37;;;;;;;3.03;1.23;;;;;;;;;;5115430;28;20044;-69
2021/06/04 05:38:03;;;;;;;8.75;2.03;;;;;;;;;;5116208;28;20039;-69
2021/06/04 05:40:31;;;;;;;4.10;1.50;;;;;;;;;;5115408;28;20117;-68
2021/06/04 05:42:57;;;;;;;6.43;1.60;;;;;;;;;;5115705;28;20024;-70
2021/06/04 05:45:24;;;;;;;4.53;1.60;;;;;;;;;;5115983;28;20035;-69
2021/06/04 05:47:49;;;;;;;4.75;1.73;;;;;;;;;;5114818;28;20023;-70
2021/06/04 05:50:20;;;;;;;4.20;1.55;;;;;;;;;;5115389;28;20028;-69
2021/06/04 05:52:45;;;;;;;5.43;1.60;;;;;;;;;;5115252;28;20063;-69
2021/06/04 05:55:12;;;;;;;5.07;1.60;;;;;;;;;;5115667;28;20063;-69
2021/06/04 05:57:37;;;;;;;5.28;1.50;;;;;;;;;;5114839;28;20030;-69
2021/06/04 06:00:06;;;;;;;3.15;1.42;;;;;;;;;;5114879;28;20035;-69
2021/06/04 06:02:31;;;;;;;5.30;1.50;;;;;;;;;;5114416;28;20474;-70
2021/06/04 06:04:57;;;;;;;7.75;1.85;;;;;;;;;;5115357;28;20102;-69
2021/06/04 06:07:22;;;;;;;5.10;1.20;;;;;;;;;;5114585;28;20069;-69
2021/06/04 06:09:47;;;;;;;4.55;1.42;;;;;;;;;;5102427;28;20040;-69
2021/06/04 06:12:12;;;;;;;3.15;1.65;;;;;;;;;;5103614;28;20027;-69
2021/06/04 06:14:38;;;;;;;4.78;1.67;;;;;;;;;;5115166;28;20058;-70
2021/06/04 06:17:03;;;;;;;5.38;1.77;;;;;;;;;;5115284;28;20533;-68
2021/06/04 06:19:29;;;;;;;5.35;1.65;;;;;;;;;;5114749;28;20028;-69
2021/06/04 06:21:54;;;;;;;3.15;1.27;;;;;;;;;;5115033;28;20035;-69
2021/06/04 06:24:20;;;;;;;4.28;1.50;;;;;;;;;;5115373;28;20706;-71
2021/06/04 06:26:46;;;;;;;8.65;1.58;;;;;;;;;;5114034;28;20460;-70
2021/06/04 06:29:11;;;;;;;4.80;1.52;;;;;;;;;;5115054;28;20365;-68
2021/06/04 06:31:39;;;;;;;3.92;1.50;;;;;;;;;;5114611;28;20020;-69
2021/06/04 06:34:05;;;;;;;7.70;1.80;;;;;;;;;;5114730;28;20059;-69
2021/06/04 06:36:32;;;;;;;5.47;1.30;;;;;;;;;;5114168;28;20121;-69
2021/06/04 06:38:59;;;;;;;8.63;1.83;;;;;;;;;;5115247;28;20016;-69
2021/06/04 06:41:25;;;;;;;5.75;1.38;;;;;;;;;;5114567;28;20036;-70
2021/06/04 06:43:52;;;;;;;8.45;1.60;;;;;;;;;;5114482;28;20472;-69
2021/06/04 06:46:18;;;;;;;4.20;1.60;;;;;;;;;;5115176;28;20069;-69
2021/06/04 06:48:43;;;;;;;4.60;1.58;;;;;;;;;;5114928;28;20034;-69
2021/06/04 06:51:09;;;;;;;15.73;2.20;;;;;;;;;;5114477;28;20028;-70
2021/06/04 06:53:35;;;;;;;3.42;1.42;;;;;;;;;;5114313;28;20463;-70
2021/06/04 06:56:01;;;;;;;14.50;2.17;;;;;;;;;;5114682;28;20042;-68
2021/06/04 06:58:27;;;;;;;3.83;1.50;;;;;;;;;;5114027;28;20020;-70
2021/06/04 07:00:53;;;;;;;8.80;1.70;;;;;;;;;;5114417;28;20022;-70
2021/06/04 07:03:23;;;;;;;7.40;1.45;;;;;;;;;;5114342;28;20032;-70
2021/06/04 07:05:49;;;;;;;9.43;2.22;;;;;;;;;;5114543;28;20027;-69
2021/06/04 07:08:14;;;;;;;11.27;1.85;;;;;;;;;;5113723;28;20028;-68
2021/06/04 07:10:40;;;;;;;4.82;1.10;;;;;;;;;;5114470;28;20082;-70
2021/06/04 07:13:07;;;;;;;9.85;1.67;;;;;;;;;;5114177;28;20464;-69
2021/06/04 07:15:32;;;;;;;4.75;1.23;;;;;;;;;;5114780;28;20031;-69
2021/06/04 07:17:59;;;;;;;6.22;1.70;;;;;;;;;;5113470;28;20383;-70
2021/06/04 07:20:26;;;;;;;8.00;1.95;;;;;;;;;;5114480;28;20114;-68
2021/06/04 07:22:51;;;;;;;5.38;1.55;;;;;;;;;;5114033;28;20020;-70
2021/06/04 07:25:17;;;;;;;5.30;1.35;;;;;;;;;;5114770;28;20050;-70
2021/06/04 07:27:44;;;;;;;6.53;1.67;;;;;;;;;;5114136;28;20353;-69
2021/06/04 07:30:11;;;;;;;6.80;1.40;;;;;;;;;;5114541;28;20027;-70
2021/06/04 07:32:37;;;;;;;4.05;1.35;;;;;;;;;;5113483;28;20030;-69
2021/06/04 07:35:04;;;;;;;7.63;2.08;;;;;;;;;;5113887;28;20039;-69
2021/06/04 07:37:30;;;;;;;6.18;1.50;;;;;;;;;;5114015;28;20103;-69
2021/06/04 07:39:55;;;;;;;9.20;1.70;;;;;;;;;;5113813;28;20100;-70
2021/06/04 07:42:20;;;;;;;4.93;1.30;;;;;;;;;;5108226;28;20035;-70
2021/06/04 07:44:46;;;;;;;5.00;1.35;;;;;;;;;;5105181;28;20028;-68
2021/06/04 07:47:13;;;;;;;5.13;1.60;;;;;;;;;;5112870;28;20027;-70
2021/06/04 07:49:38;;;;;;;7.75;1.40;;;;;;;;;;5113635;28;20119;-69
2021/06/04 07:52:04;;;;;;;6.53;1.27;;;;;;;;;;5113445;28;20102;-69
2021/06/04 07:54:30;;;;;;;3.53;1.20;;;;;;;;;;5113395;28;20464;-70
2021/06/04 07:56:56;;;;;;;2.50;0.80;;;;;;;;;;5113632;28;20045;-71
2021/06/04 07:59:22;;;;;;;7.10;1.67;;;;;;;;;;5113349;28;20083;-70
2021/06/04 08:01:47;;;;;;;2.88;1.08;;;;;;;;;;5113015;28;20030;-70
2021/06/04 08:04:12;;;;;;;3.17;1.02;;;;;;;;;;5113792;28;20092;-70
2021/06/04 08:06:39;;;;;;;3.38;1.60;;;;;;;;;;5113299;28;20030;-72
2021/06/04 08:09:05;;;;;;;5.93;1.60;;;;;;;;;;5113732;28;20034;-71
2021/06/04 08:11:36;;;;;;;6.38;1.50;;;;;;;;;;5113059;28;20556;-70
2021/06/04 08:14:06;;;;;;;2.88;1.17;;;;;;;;;;5113168;28;20030;-70
2021/06/04 08:16:31;;;;;;;5.57;1.25;;;;;;;;;;5104690;28;20075;-71
2021/06/04 08:18:57;;;;;;;2.90;1.20;;;;;;;;;;5107433;28;20120;-71
2021/06/04 08:21:26;;;;;;;6.35;1.75;;;;;;;;;;5110536;28;20148;-72
2021/06/04 08:23:51;;;;;;;5.57;1.55;;;;;;;;;;5109539;28;20096;-71
2021/06/04 08:26:19;;;;;;;4.90;1.70;;;;;;;;;;5110118;28;20073;-71
2021/06/04 08:28:44;;;;;;;5.35;1.17;;;;;;;;;;5109760;28;20027;-71
2021/06/04 08:31:10;;;;;;;3.83;1.52;;;;;;;;;;5105582;28;20024;-72
2021/06/04 08:33:37;;;;;;;4.00;1.50;;;;;;;;;;5100071;28;20038;-72
2021/06/04 08:36:04;;;;;;;3.50;1.40;;;;;;;;;;5099215;28;20043;-72
2021/06/04 08:38:32;;;;;;;6.00;1.52;;;;;;;;;;5104591;28;20077;-73
2021/06/04 08:41:16;;;;;;;3.25;0.95;;;;;;;;;;5106325;28;20045;-70
2021/06/04 08:43:41;;;;;;;2.80;1.10;;;;;;;;;;5100380;28;20499;-69
2021/06/04 08:46:18;;;;;;;3.10;1.50;;;;;;;;;;5099173;28;20087;-69
2021/06/04 08:48:43;;;;;;;3.75;1.58;;;;;;;;;;5099423;28;20260;-70
2021/06/04 08:51:21;;;;;;;5.10;1.40;;;;;;;;;;5094450;28;20040;-69
2021/06/04 08:54:05;;;;;;;5.45;1.17;;;;;;;;;;5107597;28;20263;-69
2021/06/04 08:56:40;;;;;;;3.63;1.08;;;;;;;;;;5105496;28;20184;-69
2021/06/04 08:59:16;;;;;;;3.38;1.08;;;;;;;;;;5098880;28;20583;-69
2021/06/04 09:01:41;;;;;;;2.88;1.30;;;;;;;;;;5098832;28;20035;-70
2021/06/04 09:04:14;;;;;;;2.60;1.30;;;;;;;;;;5099037;28;20028;-71
2021/06/04 09:07:01;;;;;;;2.25;1.05;;;;;;;;;;5098137;28;20401;-70
2021/06/04 09:09:29;;;;;;;6.00;1.38;;;;;;;;;;5105308;28;20031;-71
2021/06/04 09:11:56;;;;;;;2.47;1.15;;;;;;;;;;5097977;28;20028;-70
2021/06/04 09:14:22;;;;;;;1.40;0.80;;;;;;;;;;5095651;28;20512;-71
2021/06/04 09:16:47;;;;;;;3.60;1.05;;;;;;;;;;5088318;28;20075;-70
2021/06/04 09:19:15;;;;;;;2.53;1.10;;;;;;;;;;5087947;28;20035;-70
2021/06/04 09:21:43;;;;;;;7.05;1.10;;;;;;;;;;5096405;28;20236;-70
2021/06/04 09:24:18;;;;;;;2.35;0.70;;;;;;;;;;5096123;28;20063;-66
2021/06/04 09:26:43;;;;;;;1.17;1.00;;;;;;;;;;5102009;28;20381;-66
2021/06/04 09:29:15;;;;;;;2.22;1.05;;;;;;;;;;5091596;28;20038;-66
2021/06/04 09:31:43;;;;;;;1.63;0.90;;;;;;;;;;5107740;28;20042;-67
2021/06/04 09:34:26;;;;;;;3.25;1.00;;;;;;;;;;5109433;28;20032;-67
2021/06/04 09:36:52;;;;;;;2.03;1.17;;;;;;;;;;5106049;28;20032;-66
2021/06/04 09:39:20;;;;;;;3.05;1.10;;;;;;;;;;5108090;28;20081;-67
2021/06/04 09:41:46;;;;;;;1.40;0.93;;;;;;;;;;5108473;28;20408;-66
2021/06/04 09:44:21;;;;;;;3.45;1.10;;;;;;;;;;5096252;28;20066;-67
2021/06/04 09:46:52;;;;;;;3.63;1.10;;;;;;;;;;5111093;28;20035;-67
2021/06/04 09:49:26;;;;;;;1.70;0.80;;;;;;;;;;5112484;28;20028;-67
2021/06/04 09:51:57;;;;;;;3.30;0.95;;;;;;;;;;5111493;28;20082;-66
2021/06/04 09:54:28;;;;;;;4.38;1.75;;;;;;;;;;5113276;28;20028;-68
2021/06/04 09:57:07;;;;;;;2.10;1.02;;;;;;;;;;5111248;28;20055;-68
2021/06/04 09:59:32;;;;;;;1.75;0.82;;;;;;;;;;5105700;28;20031;-67
2021/06/04 10:01:58;;;;;;;3.05;0.90;;;;;;;;;;5095870;28;20101;-66
2021/06/04 10:04:27;;;;;;;1.42;0.80;;;;;;;;;;5095723;28;20027;-68
2021/06/04 10:07:16;;;;;;;1.05;0.70;;;;;;;;;;5102677;28;20043;-68
2021/06/04 10:09:42;;;;;;;1.17;0.80;;;;;;;;;;5078112;28;20056;-71
2021/06/04 10:12:28;;;;;;;1.35;0.40;;;;;;;;;;5104562;28;20028;-70
2021/06/04 10:14:59;;;;;;;2.25;0.70;;;;;;;;;;5079075;28;20067;-70
2021/06/04 10:20:21;;;;;;;2.20;0.63;;;;;;;;;;5103527;28;20089;-68
2021/06/04 10:22:46;;;;;;;;;;;;;;;;;;5106968;28;20055;-70
2021/06/04 10:25:11;;;;;;;3.45;0.80;;;;;;;;;;5106067;28;20318;-69
2021/06/04 10:27:45;;;;;;;1.35;0.35;;;;;;;;;;5095627;28;20120;-69
2021/06/04 10:30:16;;;;;;;0.80;0.70;;;;;;;;;;5091784;28;20097;-66
2021/06/04 10:32:47;;;;;;;2.90;1.23;;;;;;;;;;5093140;28;20440;-67
2021/06/04 10:35:32;;;;;;;4.82;1.25;;;;;;;;;;5098010;28;20058;-69
2021/06/04 10:38:24;;;;;;;1.42;0.70;;;;;;;;;;5105859;28;20023;-70
2021/06/04 10:40:53;;;;;;;4.50;0.80;;;;;;;;;;5061935;28;20047;-69
2021/06/04 10:43:32;;;;;;;2.22;0.80;;;;;;;;;;5092940;28;20070;-69
2021/06/04 10:46:10;;;;;;;1.83;0.70;;;;;;;;;;5102403;28;20063;-71
2021/06/04 10:48:53;;;;;;;1.05;0.43;;;;;;;;;;5105098;28;20019;-70
2021/06/04 10:51:19;;;;;;;3.15;0.68;;;;;;;;;;5105537;28;20031;-70
2021/06/04 10:53:51;;;;;;;1.95;0.65;;;;;;;;;;5091445;28;20027;-70
2021/06/04 10:56:24;;;;;;;1.30;0.43;;;;;;;;;;5103261;28;20037;-71
2021/06/04 10:59:08;;;;;;;2.33;0.70;;;;;;;;;;5090747;28;20089;-70
2021/06/04 11:01:37;;;;;;;4.20;0.70;;;;;;;;;;5088780;28;20031;-70
2021/06/04 11:04:32;;;;;;;3.25;0.70;;;;;;;;;;5101554;28;20044;-70
2021/06/04 11:07:02;;;;;;;2.83;0.70;;;;;;;;;;5086184;28;20069;-70
2021/06/04 11:09:27;;;;;;;1.02;0.55;;;;;;;;;;5094862;28;20126;-70
2021/06/04 11:12:11;;;;;;;2.22;0.50;;;;;;;;;;5105834;28;20772;-70
2021/06/04 11:14:36;;;;;;;5.15;0.57;;;;;;;;;;5100370;28;20032;-70
2021/06/04 11:17:02;;;;;;;1.38;0.50;;;;;;;;;;5100172;28;20035;-70
2021/06/04 11:19:37;;;;;;;1.00;0.40;;;;;;;;;;5089988;28;20085;-70
2021/06/04 11:22:05;;;;;;;2.22;0.68;;;;;;;;;;5100484;28;20055;-70
2021/06/04 11:24:54;;;;;;;0.32;0.25;;;;;;;;;;5104548;28;20042;-71
2021/06/04 11:27:23;;;;;;;4.05;0.52;;;;;;;;;;5101450;28;20040;-70
2021/06/04 11:29:49;;;;;;;1.25;0.35;;;;;;;;;;5103366;28;20036;-70
2021/06/04 11:32:22;;;;;;;3.03;0.47;;;;;;;;;;5092041;28;20107;-69
2021/06/04 11:34:55;;;;;;;1.40;0.50;;;;;;;;;;5100521;28;20028;-70
2021/06/04 11:37:39;;;;;;;4.18;0.60;;;;;;;;;;5110010;28;20046;-70
2021/06/04 11:40:12;;;;;;;2.45;0.63;;;;;;;;;;5094043;28;20361;-70
2021/06/04 11:42:46;;;;;;;1.20;0.80;;;;;;;;;;5093384;28;20058;-70
2021/06/04 11:45:14;;;;;;;3.10;1.00;;;;;;;;;;5101662;28;20077;-69
2021/06/04 11:47:39;;;;;;;8.32;1.02;;;;;;;;;;5090476;28;20036;-69
2021/06/04 11:50:06;;;;;;;3.97;1.23;;;;;;;;;;5090313;28;20027;-70
2021/06/04 11:52:38;;;;;;;2.25;0.85;;;;;;;;;;5088225;28;20484;-70
2021/06/04 11:55:08;;;;;;;3.58;1.05;;;;;;;;;;5090353;28;20036;-70
2021/06/04 11:57:42;;;;;;;2.60;0.82;;;;;;;;;;5090217;28;20081;-70
2021/06/04 12:00:07;;;;;;;5.43;1.38;;;;;;;;;;5109583;28;20033;-69
2021/06/04 12:02:32;;;;;;;4.80;1.02;;;;;;;;;;5109985;28;20023;-70
2021/06/04 12:05:04;;;;;;;3.17;0.82;;;;;;;;;;5109507;28;20501;-70
2021/06/04 12:07:32;;;;;;;4.30;1.13;;;;;;;;;;5110515;28;20479;-69
2021/06/04 12:09:57;;;;;;;2.38;0.90;;;;;;;;;;5110979;28;20373;-70
2021/06/04 12:12:25;;;;;;;2.58;0.90;;;;;;;;;;5110976;28;20034;-70
2021/06/04 12:14:57;;;;;;;4.38;0.90;;;;;;;;;;5110915;28;20039;-70
2021/06/04 12:17:25;;;;;;;4.13;1.08;;;;;;;;;;5111007;28;20491;-70
2021/06/04 12:20:09;;;;;;;3.08;1.00;;;;;;;;;;5091831;28;20032;-70
2021/06/04 12:22:38;;;;;;;1.58;0.70;;;;;;;;;;5090712;28;20036;-66
2021/06/04 12:25:04;;;;;;;2.75;1.08;;;;;;;;;;5094863;28;20028;-70
2021/06/04 12:27:30;;;;;;;2.47;0.98;;;;;;;;;;5110204;28;20028;-70
2021/06/04 12:29:55;;;;;;;5.32;1.13;;;;;;;;;;5109721;28;20083;-69
2021/06/04 12:32:23;;;;;;;4.43;0.77;;;;;;;;;;5109439;28;20043;-70
2021/06/04 12:34:48;;;;;;;3.38;1.02;;;;;;;;;;5110175;28;20016;-69
2021/06/04 12:37:20;;;;;;;4.20;1.02;;;;;;;;;;5110085;28;20073;-70
2021/06/04 12:40:00;;;;;;;3.60;0.95;;;;;;;;;;5109748;28;20030;-70
2021/06/04 12:42:25;;;;;;;4.50;0.90;;;;;;;;;;5091019;28;20028;-70
2021/06/04 12:45:09;;;;;;;7.88;1.05;;;;;;;;;;5109883;28;20072;-69
2021/06/04 12:47:41;;;;;;;4.05;0.90;;;;;;;;;;5107178;28;20456;-70
2021/06/04 12:50:08;;;;;;;4.78;1.10;;;;;;;;;;5097753;28;20106;-71
2021/06/04 12:52:33;;;;;;;2.85;1.00;;;;;;;;;;5110144;28;20093;-70
2021/06/04 12:55:17;;;;;;;4.30;1.08;;;;;;;;;;5110636;28;20028;-70
2021/06/04 12:57:43;;;;;;;5.43;1.15;;;;;;;;;;5100650;28;20042;-69
2021/06/04 13:00:24;;;;;;;2.03;0.80;;;;;;;;;;5109525;28;20028;-70
2021/06/04 13:02:55;;;;;;;2.58;0.80;;;;;;;;;;5107454;28;20020;-71
2021/06/04 13:05:25;;;;;;;1.95;0.77;;;;;;;;;;5089781;28;20036;-70
2021/06/04 13:07:52;;;;;;;6.90;1.00;;;;;;;;;;5090243;28;20039;-69
2021/06/04 13:10:25;;;;;;;2.90;0.70;;;;;;;;;;5109721;28;20118;-70
2021/06/04 13:12:53;;;;;;;1.30;0.70;;;;;;;;;;5104080;28;20063;-70
2021/06/04 13:15:21;;;;;;;3.42;0.60;;;;;;;;;;5109143;28;20053;-70
2021/06/04 13:18:04;;;;;;;4.40;0.85;;;;;;;;;;5111354;28;20020;-70
2021/06/04 13:20:31;;;;;;;4.57;1.15;;;;;;;;;;5114710;28;20023;-70
2021/06/04 13:23:11;;;;;;;4.05;1.10;;;;;;;;;;5111680;28;20047;-70
2021/06/04 13:25:37;;;;;;;2.28;0.75;;;;;;;;;;5110836;28;20046;-68
2021/06/04 13:28:04;;;;;;;4.35;1.60;;;;;;;;;;5112566;28;20475;-70
2021/06/04 13:30:30;;;;;;;1.55;0.60;;;;;;;;;;5112202;28;20026;-70
2021/06/04 13:32:58;;;;;;;1.73;0.70;;;;;;;;;;5112151;28;20408;-69
2021/06/04 13:35:35;;;;;;;1.98;0.70;;;;;;;;;;5093390;28;20475;-70
2021/06/04 13:38:03;;;;;;;2.75;0.80;;;;;;;;;;5112121;28;20084;-69
2021/06/04 13:40:31;;;;;;;1.65;0.90;;;;;;;;;;5112857;28;20066;-69
2021/06/04 13:43:01;;;;;;;4.38;0.93;;;;;;;;;;5113121;28;20030;-70
2021/06/04 13:45:29;;;;;;;1.45;0.70;;;;;;;;;;5106479;28;20089;-71
2021/06/04 13:48:03;;;;;;;2.35;0.90;;;;;;;;;;5096905;28;20042;-69
2021/06/04 13:50:28;;;;;;;1.67;0.77;;;;;;;;;;5111301;28;20062;-70
2021/06/04 13:53:23;;;;;;;4.28;0.90;;;;;;;;;;5112032;28;20583;-70
2021/06/04 13:56:06;;;;;;;5.68;1.00;;;;;;;;;;5074511;28;20442;-69
2021/06/04 13:58:31;;;;;;;3.22;1.02;;;;;;;;;;5092836;28;20106;-69
2021/06/04 14:01:10;;;;;;;6.47;0.80;;;;;;;;;;5091501;28;20111;-70
2021/06/04 14:03:39;;;;;;;3.47;0.93;;;;;;;;;;5092002;28;20040;-69
2021/06/04 14:06:23;;;;;;;3.83;0.80;;;;;;;;;;5091302;28;20408;-70
2021/06/04 14:09:05;;;;;;;5.45;1.05;;;;;;;;;;5093805;28;20031;-69
2021/06/04 14:11:53;;;;;;;2.45;0.93;;;;;;;;;;5094533;28;20492;-69
2021/06/04 14:14:21;;;;;;;7.68;0.98;;;;;;;;;;5095572;28;20123;-69
2021/06/04 14:16:48;;;;;;;3.25;0.88;;;;;;;;;;5100573;28;20031;-68
2021/06/04 14:19:24;;;;;;;2.30;0.70;;;;;;;;;;5103718;28;20043;-69
2021/06/04 14:21:49;;;;;;;2.63;0.82;;;;;;;;;;5099498;28;20028;-68
2021/06/04 14:24:20;;;;;;;2.65;0.80;;;;;;;;;;5105156;28;20434;-70
2021/06/04 14:26:46;;;;;;;2.55;0.98;;;;;;;;;;5106645;28;20067;-70
2021/06/04 14:29:21;;;;;;;3.55;0.93;;;;;;;;;;5101927;28;20059;-69
2021/06/04 14:31:50;;;;;;;5.07;0.88;;;;;;;;;;5088555;28;20516;-68
2021/06/04 14:34:16;;;;;;;1.48;1.08;;;;;;;;;;5106692;28;20399;-69
2021/06/04 14:36:41;;;;;;;2.65;0.90;;;;;;;;;;5096081;28;20036;-69
2021/06/04 14:39:25;;;;;;;2.47;0.98;;;;;;;;;;5103826;28;20035;-69
2021/06/04 14:41:51;;;;;;;3.42;0.70;;;;;;;;;;5092279;28;20035;-69
2021/06/04 14:44:16;;;;;;;2.58;1.65;;;;;;;;;;5099706;28;20546;-69
2021/06/04 14:46:41;;;;;;;3.85;1.02;;;;;;;;;;5099895;28;20036;-69
2021/06/04 14:49:12;;;;;;;3.75;0.63;;;;;;;;;;5092930;28;20399;-70
2021/06/04 14:51:38;;;;;;;3.03;0.75;;;;;;;;;;5104704;28;20058;-70
2021/06/04 14:54:03;;;;;;;2.28;0.88;;;;;;;;;;5093313;28;20023;-68
2021/06/04 14:56:29;;;;;;;2.00;0.77;;;;;;;;;;5098178;28;20032;-68